KPVW

Hale County Airport

Plainview, Texas, USA
KPVW 251127Z 2512/2612 25008KT P6SM SKC FM251700 02018G25KT P6SM SKC FM260700 04015G25KT P6SM -SHRA OVC015
Issued Valid From Valid To
Sep-25 @ 11:27 UTC
(6 hours ago)
Sep-25 @ 12:00 UTC
(5 hours ago)
Sep-26 @ 12:00 UTC
(in 19 hours)
Expired Click to View Sep-25 @ 12:00 to Sep-25 @ 17:00
KPVW 251127Z 2512/2612 25008KT P6SM SKC
Wind Visibility Clouds
250° at 8 knots Greater than 6 miles
  • Clear skies
From Sep-25 @ 17:00 to Sep-26 @ 07:00
FM251700 02018G25KT P6SM SKC
Wind Visibility Clouds
20° at 18 knots
 Gusting to 25 knots
Greater than 6 miles
  • Clear skies
From Sep-26 @ 07:00 to Sep-26 @ 12:00
FM260700 04015G25KT P6SM -SHRA OVC015
Wind Visibility Clouds Conditions
40° at 15 knots
 Gusting to 25 knots
Greater than 6 miles
  • Overcast at 1,500' AGL
  • Light Rain
KPVW 251127Z 2512/2612 25008KT P6SM SKC FM251700 02018G25KT P6SM SKC FM260700 04015G25KT P6SM -SHRA OVC015
Issued Sep-25 @ 11:27 UTC
(6 hours ago)
Valid From Sep-25 @ 12:00 UTC
(5 hours ago)
Valid To Sep-26 @ 12:00 UTC
(in 19 hours)
Sep-25 @ 12:00 - Sep-25 @ 17:00
Wind Visibility
250° at 8 knots Greater than 6 miles
Clouds
  • Clear skies
From Sep-25 @ 17:00 - Sep-26 @ 07:00
Wind Visibility
20° at 18 knots
 Gusting to 25 knots
Greater than 6 miles
Clouds
  • Clear skies
From Sep-26 @ 07:00 - Sep-26 @ 12:00
Wind Visibility
40° at 15 knots
 Gusting to 25 knots
Greater than 6 miles
Clouds
  • Overcast at 1,500' AGL
Conditions
  • Light Rain